createdAt,value
2022-10-25T00:01:46.458Z,2.40
2022-10-25T00:04:14.671Z,2.90
2022-10-25T00:06:43.096Z,2.50
2022-10-25T00:09:11.715Z,2.47
2022-10-25T00:11:39.831Z,2.40
2022-10-25T00:14:09.876Z,2.87
2022-10-25T00:16:39.167Z,2.70
2022-10-25T00:19:07.508Z,2.57
2022-10-25T00:21:35.576Z,2.50
2022-10-25T00:24:04.927Z,2.33
2022-10-25T00:26:33.156Z,2.60
2022-10-25T00:29:01.978Z,2.40
2022-10-25T00:31:31.346Z,2.60
2022-10-25T00:33:59.472Z,2.47
2022-10-25T00:36:28.412Z,2.80
2022-10-25T00:38:58.801Z,2.70
2022-10-25T00:41:29.821Z,2.60
2022-10-25T00:44:18.634Z,2.57
2022-10-25T00:46:48.019Z,2.50
2022-10-25T00:49:20.146Z,2.67
2022-10-25T00:51:51.207Z,2.57
2022-10-25T00:54:23.936Z,2.30
2022-10-25T00:56:53.367Z,2.87
2022-10-25T00:59:25.611Z,2.50
2022-10-25T01:01:56.554Z,2.67
2022-10-25T01:04:29.657Z,2.80
2022-10-25T01:06:58.426Z,2.33
2022-10-25T01:09:28.571Z,2.13
2022-10-25T01:11:56.712Z,2.47
2022-10-25T01:14:26.817Z,2.80
2022-10-25T01:17:02.639Z,2.30
2022-10-25T01:19:57.834Z,2.30
2022-10-25T01:22:30.796Z,2.67
2022-10-25T01:25:35.429Z,2.30
2022-10-25T01:28:10.409Z,2.47
2022-10-25T01:31:08.156Z,2.17
2022-10-25T01:33:40.676Z,2.40
2022-10-25T01:36:17.562Z,2.40
2022-10-25T01:38:50.650Z,2.47
2022-10-25T01:41:25.963Z,2.27
2022-10-25T01:44:05.814Z,2.30
2022-10-25T01:46:45.380Z,2.23
2022-10-25T01:49:18.371Z,2.23
2022-10-25T01:51:46.372Z,2.30
2022-10-25T01:54:20.624Z,2.33
2022-10-25T01:56:59.258Z,2.60
2022-10-25T01:59:47.729Z,2.00
2022-10-25T02:02:25.452Z,2.00
2022-10-25T02:05:02.692Z,2.17
2022-10-25T02:07:38.528Z,1.90
2022-10-25T02:10:10.736Z,2.03
2022-10-25T02:12:51.385Z,1.80
2022-10-25T02:15:25.996Z,2.23
2022-10-25T02:17:59.872Z,2.20
2022-10-25T02:20:30.348Z,1.80
2022-10-25T02:23:00.559Z,1.87
2022-10-25T02:25:30.248Z,2.10
2022-10-25T02:28:01.944Z,2.10
2022-10-25T02:30:33.376Z,1.80
2022-10-25T02:33:03.153Z,2.40
2022-10-25T02:35:31.229Z,1.70
2022-10-25T02:37:59.339Z,1.90
2022-10-25T02:40:28.050Z,2.30
2022-10-25T02:42:56.139Z,2.00
2022-10-25T02:45:24.514Z,1.80
2022-10-25T02:47:52.656Z,1.70
2022-10-25T02:50:22.019Z,1.90
2022-10-25T02:52:50.244Z,1.87
2022-10-25T02:55:18.186Z,2.30
2022-10-25T02:57:46.202Z,2.07
2022-10-25T03:00:15.458Z,2.10
2022-10-25T03:02:43.439Z,1.97
2022-10-25T03:05:11.523Z,2.53
2022-10-25T03:07:40.915Z,1.67
2022-10-25T03:10:09.794Z,2.03
2022-10-25T03:12:37.764Z,2.00
2022-10-25T03:15:06.682Z,2.20
2022-10-25T03:17:34.606Z,1.57
2022-10-25T03:20:02.668Z,1.80
2022-10-25T03:22:31.930Z,1.80
2022-10-25T03:25:01.327Z,2.50
2022-10-25T03:27:29.307Z,1.77
2022-10-25T03:29:57.343Z,2.00
2022-10-25T03:32:25.435Z,2.20
2022-10-25T03:34:53.589Z,1.97
2022-10-25T03:37:21.617Z,1.90
2022-10-25T03:39:49.693Z,2.00
2022-10-25T03:42:19.002Z,2.70
2022-10-25T03:44:47.009Z,2.10
2022-10-25T03:47:14.945Z,2.10
2022-10-25T03:49:42.937Z,2.20
2022-10-25T03:52:11.145Z,2.23
2022-10-25T03:54:39.715Z,2.40
2022-10-25T03:57:07.658Z,2.03
2022-10-25T03:59:37.031Z,2.17
2022-10-25T04:02:05.275Z,2.37
2022-10-25T04:04:33.568Z,1.90
2022-10-25T04:07:01.680Z,2.40
2022-10-25T04:09:29.806Z,2.43
2022-10-25T04:11:57.775Z,2.20
2022-10-25T04:14:25.981Z,2.00
2022-10-25T04:16:55.301Z,1.90
2022-10-25T04:19:23.311Z,2.10
2022-10-25T04:21:51.306Z,1.83
2022-10-25T04:24:19.335Z,2.13
2022-10-25T04:26:47.330Z,2.00
2022-10-25T04:29:15.920Z,2.30
2022-10-25T04:31:44.155Z,1.90
2022-10-25T04:34:13.462Z,2.10
2022-10-25T04:36:41.485Z,1.97
2022-10-25T04:39:09.556Z,2.10
2022-10-25T04:41:37.730Z,2.13
2022-10-25T04:44:06.178Z,2.00
2022-10-25T04:46:34.271Z,2.00
2022-10-25T04:49:02.336Z,2.00
2022-10-25T04:51:31.680Z,2.30
2022-10-25T04:54:00.031Z,2.10
2022-10-25T04:56:30.082Z,2.03
2022-10-25T04:58:59.690Z,1.80
2022-10-25T05:01:27.994Z,2.60
2022-10-25T05:03:56.098Z,2.00
2022-10-25T05:06:26.760Z,2.10
2022-10-25T05:08:56.810Z,2.20
2022-10-25T05:11:26.037Z,2.23
2022-10-25T05:13:54.168Z,2.03
2022-10-25T05:16:24.986Z,2.00
2022-10-25T05:18:55.305Z,2.00
2022-10-25T05:24:01.895Z,2.20
2022-10-25T05:26:31.374Z,1.90
2022-10-25T05:28:59.972Z,2.30
2022-10-25T05:31:30.017Z,2.07
2022-10-25T05:34:00.148Z,2.23
2022-10-25T05:36:29.489Z,2.13
2022-10-25T05:38:59.194Z,2.27
2022-10-25T05:41:28.698Z,2.20
2022-10-25T05:43:59.821Z,2.60
2022-10-25T05:46:28.580Z,2.10
2022-10-25T05:48:59.444Z,2.60
2022-10-25T05:51:37.170Z,2.03
2022-10-25T05:54:08.974Z,1.70
2022-10-25T05:56:37.681Z,2.10
2022-10-25T05:59:08.875Z,2.30
2022-10-25T06:01:38.575Z,2.60
2022-10-25T06:04:07.280Z,2.30
2022-10-25T06:06:36.194Z,2.80
2022-10-25T06:09:06.943Z,2.50
2022-10-25T06:11:35.575Z,2.80
2022-10-25T06:14:03.758Z,2.90
2022-10-25T06:16:32.138Z,2.50
2022-10-25T06:19:00.303Z,2.37
2022-10-25T06:21:30.214Z,2.90
2022-10-25T06:23:59.913Z,2.67
2022-10-25T06:26:31.303Z,2.50
2022-10-25T06:29:01.321Z,2.20
2022-10-25T06:31:30.605Z,2.20
2022-10-25T06:34:00.556Z,2.80
2022-10-25T06:36:28.974Z,2.50
2022-10-25T06:38:59.679Z,2.43
2022-10-25T06:41:31.575Z,2.47
2022-10-25T06:44:05.384Z,3.03
2022-10-25T06:46:57.790Z,2.47
2022-10-25T06:49:24.966Z,2.70
2022-10-25T06:51:53.082Z,2.50
2022-10-25T06:54:21.119Z,2.47
2022-10-25T06:56:50.598Z,2.40
2022-10-25T06:59:20.348Z,3.00
2022-10-25T07:01:48.646Z,2.40
2022-10-25T07:04:16.959Z,2.50
2022-10-25T07:06:45.082Z,2.60
2022-10-25T07:09:13.406Z,2.40
2022-10-25T07:11:41.451Z,2.50
2022-10-25T07:14:11.777Z,3.10
2022-10-25T07:16:39.926Z,2.53
2022-10-25T07:19:08.461Z,2.80
2022-10-25T07:21:36.593Z,2.77
2022-10-25T07:24:04.991Z,2.60
2022-10-25T07:26:35.806Z,3.40
2022-10-25T07:29:05.130Z,2.90
2022-10-25T07:31:36.962Z,2.77
2022-10-25T07:34:06.119Z,2.40
2022-10-25T07:36:34.814Z,2.77
2022-10-25T07:39:02.844Z,2.60
2022-10-25T07:41:30.876Z,2.60
2022-10-25T07:43:58.982Z,2.90
2022-10-25T07:46:27.233Z,2.37
2022-10-25T07:48:56.624Z,2.70
2022-10-25T07:51:24.724Z,2.20
2022-10-25T07:53:54.327Z,2.67
2022-10-25T07:56:23.887Z,2.37
2022-10-25T07:58:52.831Z,2.30
2022-10-25T08:01:23.289Z,2.27
2022-10-25T08:03:51.905Z,2.50
2022-10-25T08:06:21.854Z,2.30
2022-10-25T08:08:50.244Z,2.80
2022-10-25T08:11:20.603Z,2.37
2022-10-25T08:13:50.887Z,2.07
2022-10-25T08:16:19.401Z,2.30
2022-10-25T08:18:47.478Z,3.23
2022-10-25T08:21:15.497Z,2.20
2022-10-25T08:23:44.950Z,2.60
2022-10-25T08:26:12.976Z,2.50
2022-10-25T08:28:40.989Z,2.50
2022-10-25T08:31:10.279Z,2.50
2022-10-25T08:33:38.820Z,2.50
2022-10-25T08:36:07.985Z,2.93
2022-10-25T08:38:36.052Z,2.67
2022-10-25T08:41:12.044Z,2.10
2022-10-25T08:44:09.474Z,2.97
2022-10-25T08:46:43.030Z,2.70
2022-10-25T08:49:19.506Z,2.70
2022-10-25T08:51:52.053Z,2.33
2022-10-25T08:54:26.314Z,2.67
2022-10-25T08:57:15.009Z,2.23
2022-10-25T08:59:48.609Z,2.30
2022-10-25T09:02:38.509Z,2.73
2022-10-25T09:05:15.743Z,2.17
2022-10-25T09:07:57.312Z,2.17
2022-10-25T09:10:40.288Z,2.67
2022-10-25T09:13:21.779Z,2.20
2022-10-25T09:15:59.577Z,2.70
2022-10-25T09:18:37.892Z,2.20
2022-10-25T09:21:21.496Z,2.00
2022-10-25T09:24:01.963Z,2.30
2022-10-25T09:27:00.171Z,2.30
2022-10-25T09:29:37.439Z,2.37
2022-10-25T09:32:13.651Z,2.23
2022-10-25T09:34:43.212Z,2.50
2022-10-25T09:37:21.001Z,2.47
2022-10-25T09:40:10.277Z,2.30
2022-10-25T09:42:46.442Z,2.67
2022-10-25T09:45:28.932Z,2.30
2022-10-25T09:48:13.955Z,2.40
2022-10-25T09:50:52.402Z,2.00
2022-10-25T09:53:24.799Z,2.47
2022-10-25T09:55:56.344Z,1.93
2022-10-25T09:58:32.446Z,1.80
2022-10-25T10:01:12.005Z,1.93
2022-10-25T10:03:46.670Z,2.57
2022-10-25T10:06:42.781Z,2.00
2022-10-25T10:09:28.907Z,2.07
2022-10-25T10:12:02.496Z,2.30
2022-10-25T10:14:38.655Z,1.90
2022-10-25T10:17:19.174Z,2.07
2022-10-25T10:20:20.783Z,1.93
2022-10-25T10:22:55.907Z,1.97
2022-10-25T10:25:30.794Z,2.27
2022-10-25T10:28:03.043Z,1.80
2022-10-25T10:30:39.025Z,2.20
2022-10-25T10:33:20.513Z,2.00
2022-10-25T10:35:58.892Z,2.00
2022-10-25T10:38:30.158Z,1.90
2022-10-25T10:41:16.772Z,1.77
2022-10-25T10:43:45.480Z,2.30
2022-10-25T10:46:20.129Z,2.00
2022-10-25T10:48:59.713Z,2.30
2022-10-25T10:51:44.033Z,1.90
2022-10-25T10:54:29.029Z,1.80
2022-10-25T10:57:01.669Z,2.13
2022-10-25T10:59:40.512Z,2.07
2022-10-25T11:02:32.859Z,1.87
2022-10-25T11:05:05.956Z,2.00
2022-10-25T11:07:38.552Z,1.50
2022-10-25T11:10:31.878Z,2.17
2022-10-25T11:13:17.734Z,1.63
2022-10-25T11:16:41.943Z,2.00
2022-10-25T11:19:30.041Z,2.07
2022-10-25T11:22:32.960Z,2.10
2022-10-25T11:25:24.045Z,2.33
2022-10-25T11:28:03.817Z,2.00
2022-10-25T11:30:40.674Z,1.80
2022-10-25T11:33:11.766Z,1.60
2022-10-25T11:36:04.729Z,1.90
2022-10-25T11:38:43.138Z,1.70
2022-10-25T11:41:22.605Z,1.80
2022-10-25T11:44:03.314Z,1.73
2022-10-25T11:46:37.902Z,1.77
2022-10-25T11:49:18.617Z,1.90
2022-10-25T11:52:02.327Z,2.33
2022-10-25T11:54:38.988Z,2.23
2022-10-25T11:57:16.567Z,2.00
2022-10-25T11:59:57.207Z,2.00
2022-10-25T12:02:43.723Z,2.70
2022-10-25T12:05:26.345Z,2.03
2022-10-25T12:08:02.601Z,1.87
2022-10-25T12:10:37.047Z,2.10
2022-10-25T12:13:13.306Z,2.03
2022-10-25T12:15:46.220Z,1.97
2022-10-25T12:18:21.502Z,2.10
2022-10-25T12:20:53.612Z,2.10
2022-10-25T12:23:24.446Z,2.00
2022-10-25T12:25:57.890Z,1.93
2022-10-25T12:28:32.161Z,1.90
2022-10-25T12:31:05.693Z,2.03
2022-10-25T12:33:40.912Z,2.10
2022-10-25T12:36:16.614Z,1.90
2022-10-25T12:38:44.709Z,1.50
2022-10-25T12:41:21.676Z,2.20
2022-10-25T12:44:08.184Z,1.63
2022-10-25T12:47:03.921Z,1.70
2022-10-25T12:53:15.262Z,1.77
2022-10-25T12:55:55.822Z,1.80
2022-10-25T12:58:43.184Z,1.80
2022-10-25T13:01:30.050Z,2.00
2022-10-25T13:04:31.809Z,2.30
2022-10-25T13:07:04.171Z,1.80
2022-10-25T13:09:35.656Z,1.90
2022-10-25T13:12:06.904Z,1.67
2022-10-25T13:14:39.221Z,1.60
2022-10-25T13:17:48.219Z,1.73
2022-10-25T13:20:50.941Z,1.90
2022-10-25T13:24:02.779Z,1.70
2022-10-25T13:26:54.032Z,1.90
2022-10-25T13:29:50.515Z,1.67
2022-10-25T13:32:21.195Z,1.80
2022-10-25T13:34:49.894Z,1.80
2022-10-25T13:37:42.171Z,2.00
2022-10-25T13:40:22.797Z,1.80
2022-10-25T13:43:00.889Z,1.80
2022-10-25T13:45:38.777Z,2.10
2022-10-25T13:48:18.382Z,1.57
2022-10-25T13:50:48.092Z,1.63
2022-10-25T13:53:22.381Z,1.70
2022-10-25T13:55:59.439Z,1.90
2022-10-25T13:58:46.969Z,1.90
2022-10-25T14:01:55.692Z,1.70
2022-10-25T14:04:40.753Z,1.67
2022-10-25T14:07:44.771Z,1.90
2022-10-25T14:10:21.839Z,1.77
2022-10-25T14:12:53.583Z,2.00
2022-10-25T14:15:42.368Z,1.67
2022-10-25T14:18:15.654Z,1.67
2022-10-25T14:20:48.681Z,1.90
2022-10-25T14:23:22.183Z,1.67
2022-10-25T14:25:52.960Z,1.80
2022-10-25T14:28:24.624Z,1.67
2022-10-25T14:30:55.297Z,1.90
2022-10-25T14:33:26.355Z,1.73
2022-10-25T14:35:58.244Z,1.93
2022-10-25T14:38:28.761Z,1.80
2022-10-25T14:40:58.742Z,2.00
2022-10-25T14:43:30.381Z,1.80
2022-10-25T14:46:04.803Z,1.60
2022-10-25T14:48:33.590Z,1.80
2022-10-25T14:51:07.237Z,1.80
2022-10-25T14:53:36.890Z,1.60
2022-10-25T14:56:06.819Z,1.70
2022-10-25T14:58:41.999Z,1.60
2022-10-25T15:01:12.854Z,1.90
2022-10-25T15:03:43.763Z,2.00
2022-10-25T15:06:14.404Z,2.00
2022-10-25T15:08:49.140Z,2.03
2022-10-25T15:11:21.497Z,1.77
2022-10-25T15:13:51.036Z,2.13
2022-10-25T15:16:41.818Z,2.20
2022-10-25T15:19:20.392Z,1.87
2022-10-25T15:21:51.516Z,2.10
2022-10-25T15:24:22.404Z,2.10
2022-10-25T15:26:57.605Z,1.50
2022-10-25T15:29:45.530Z,1.70
2022-10-25T15:32:16.561Z,1.90
2022-10-25T15:34:46.687Z,2.03
2022-10-25T15:37:17.975Z,1.60
2022-10-25T15:39:47.707Z,1.80
2022-10-25T15:42:16.071Z,1.87
2022-10-25T15:44:45.323Z,1.80
2022-10-25T15:47:27.129Z,1.70
2022-10-25T15:49:55.617Z,2.20
2022-10-25T15:52:25.313Z,1.80
2022-10-25T15:54:53.893Z,2.10
2022-10-25T15:57:21.984Z,1.90
2022-10-25T15:59:49.987Z,2.10
2022-10-25T16:02:21.731Z,2.07
2022-10-25T16:04:50.104Z,1.87
2022-10-25T16:07:18.294Z,1.60
2022-10-25T16:09:47.737Z,2.20
2022-10-25T16:12:22.134Z,1.90
2022-10-25T16:14:52.004Z,1.73
2022-10-25T16:17:20.210Z,3.20
2022-10-25T16:19:48.430Z,2.37
2022-10-25T16:22:16.532Z,2.53
2022-10-25T16:24:44.538Z,3.10
2022-10-25T16:27:14.537Z,3.23
2022-10-25T16:29:43.040Z,3.70
2022-10-25T16:32:11.063Z,3.50
2022-10-25T16:34:42.392Z,3.43
2022-10-25T16:37:11.965Z,3.73
2022-10-25T16:39:40.401Z,3.00
2022-10-25T16:42:29.297Z,3.00
2022-10-25T16:44:58.209Z,3.07
2022-10-25T16:47:26.429Z,2.80
2022-10-25T16:49:55.300Z,2.77
2022-10-25T16:52:24.460Z,4.00
2022-10-25T16:54:52.926Z,3.77
2022-10-25T16:57:21.007Z,3.80
2022-10-25T16:59:51.226Z,3.43
2022-10-25T17:02:21.222Z,3.20
2022-10-25T17:04:50.179Z,3.30
2022-10-25T17:07:18.787Z,2.87
2022-10-25T17:09:47.081Z,3.20
2022-10-25T17:12:15.136Z,3.80
2022-10-25T17:14:43.229Z,4.40
2022-10-25T17:17:12.894Z,11.40
2022-10-25T17:19:41.158Z,5.37
2022-10-25T17:22:09.569Z,4.60
2022-10-25T17:24:37.719Z,4.73
2022-10-25T17:27:07.009Z,4.23
2022-10-25T17:29:35.625Z,4.10
2022-10-25T17:32:03.854Z,4.60
2022-10-25T17:34:33.225Z,4.40
2022-10-25T17:37:02.215Z,4.03
2022-10-25T17:39:31.075Z,4.77
2022-10-25T17:41:59.721Z,5.10
2022-10-25T17:44:27.810Z,5.10
2022-10-25T17:46:58.473Z,4.33
2022-10-25T17:49:29.032Z,4.33
2022-10-25T17:51:58.543Z,3.53
2022-10-25T17:54:26.645Z,3.90
2022-10-25T17:56:58.445Z,4.17
2022-10-25T17:59:28.176Z,4.53
2022-10-25T18:01:56.689Z,4.20
2022-10-25T18:04:24.969Z,4.50
2022-10-25T18:06:53.167Z,5.40
2022-10-25T18:09:22.635Z,5.30
2022-10-25T18:11:50.754Z,5.80
2022-10-25T18:14:18.898Z,5.47
2022-10-25T18:16:47.181Z,5.30
2022-10-25T18:19:16.392Z,6.03
2022-10-25T18:21:44.569Z,4.50
2022-10-25T18:24:14.154Z,5.17
2022-10-25T18:26:43.938Z,6.07
2022-10-25T18:29:13.774Z,6.00
2022-10-25T18:31:42.555Z,5.20
2022-10-25T18:34:10.754Z,5.97
2022-10-25T18:36:38.818Z,7.20
2022-10-25T18:39:07.198Z,7.90
2022-10-25T18:41:35.828Z,7.77
2022-10-25T18:44:05.711Z,7.03
2022-10-25T18:46:33.730Z,7.43
2022-10-25T18:49:01.925Z,6.87
2022-10-25T18:51:31.999Z,5.83
2022-10-25T18:54:02.274Z,6.37
2022-10-25T18:56:31.570Z,6.00
2022-10-25T18:58:59.997Z,6.10
2022-10-25T19:01:32.653Z,5.90
2022-10-25T19:04:04.031Z,7.50
2022-10-25T19:06:33.819Z,6.80
2022-10-25T19:09:02.913Z,5.80
2022-10-25T19:11:32.850Z,5.43
2022-10-25T19:14:01.433Z,4.50
2022-10-25T19:16:30.989Z,4.37
2022-10-25T19:19:03.250Z,4.53
2022-10-25T19:21:31.619Z,4.50
2022-10-25T19:23:59.629Z,3.73
2022-10-25T19:26:27.822Z,4.33
2022-10-25T19:28:58.248Z,3.90
2022-10-25T19:31:27.366Z,3.80
2022-10-25T19:34:00.170Z,4.07
2022-10-25T19:36:28.453Z,3.93
2022-10-25T19:38:56.894Z,4.07
2022-10-25T19:41:25.674Z,4.10
2022-10-25T19:43:56.373Z,4.60
2022-10-25T19:46:24.729Z,4.80
2022-10-25T19:48:53.413Z,3.83
2022-10-25T19:51:22.851Z,4.37
2022-10-25T19:53:51.065Z,3.83
2022-10-25T19:56:20.928Z,4.80
2022-10-25T19:58:49.494Z,3.60
2022-10-25T20:01:19.946Z,4.03
2022-10-25T20:03:50.525Z,3.83
2022-10-25T20:06:24.323Z,3.20
2022-10-25T20:08:55.334Z,3.60
2022-10-25T20:11:25.076Z,3.70
2022-10-25T20:13:54.513Z,3.30
2022-10-25T20:16:23.549Z,4.00
2022-10-25T20:18:52.775Z,3.73
2022-10-25T20:21:23.152Z,3.90
2022-10-25T20:23:57.538Z,4.80
2022-10-25T20:26:27.407Z,4.40
2022-10-25T20:28:56.604Z,4.33
2022-10-25T20:31:25.799Z,4.30
2022-10-25T20:33:54.313Z,4.20
2022-10-25T20:36:23.090Z,4.27
2022-10-25T20:38:51.286Z,4.10
2022-10-25T20:41:21.976Z,4.43
2022-10-25T20:43:51.631Z,4.43
2022-10-25T20:46:20.739Z,4.40
2022-10-25T20:48:49.176Z,4.70
2022-10-25T20:51:18.215Z,4.80
2022-10-25T20:53:48.653Z,4.10
2022-10-25T20:56:17.924Z,4.30
2022-10-25T20:58:47.715Z,4.37
2022-10-25T21:01:15.887Z,4.57
2022-10-25T21:03:44.072Z,5.00
2022-10-25T21:06:13.372Z,4.10
2022-10-25T21:08:41.829Z,4.47
2022-10-25T21:11:13.187Z,4.00
2022-10-25T21:13:41.321Z,4.40
2022-10-25T21:16:12.326Z,3.80
2022-10-25T21:18:40.688Z,4.40
2022-10-25T21:21:11.002Z,4.20
2022-10-25T21:23:39.206Z,4.80
2022-10-25T21:26:09.929Z,3.67
2022-10-25T21:28:39.700Z,4.23
2022-10-25T21:31:11.257Z,3.50
2022-10-25T21:33:41.697Z,3.80
2022-10-25T21:36:12.523Z,4.03
2022-10-25T21:38:41.488Z,4.20
2022-10-25T21:41:10.803Z,4.10
2022-10-25T21:43:42.194Z,3.87
2022-10-25T21:46:11.833Z,4.60
2022-10-25T21:48:40.138Z,3.97
2022-10-25T21:51:08.843Z,4.30
2022-10-25T21:53:36.880Z,4.40
2022-10-25T21:56:07.030Z,4.93
2022-10-25T21:58:35.144Z,5.00
2022-10-25T22:01:03.579Z,5.93
2022-10-25T22:03:33.182Z,5.20
2022-10-25T22:06:01.219Z,4.80
2022-10-25T22:08:29.369Z,4.77
2022-10-25T22:13:28.286Z,4.60
2022-10-25T22:16:01.143Z,4.70
2022-10-25T22:18:29.502Z,4.73
2022-10-25T22:21:00.760Z,4.60
2022-10-25T22:23:30.804Z,5.33
2022-10-25T22:26:02.297Z,5.67
2022-10-25T22:28:30.417Z,4.87
2022-10-25T22:30:58.960Z,4.87
2022-10-25T22:33:26.997Z,4.77
2022-10-25T22:35:55.277Z,5.10
2022-10-25T22:38:24.724Z,5.20
2022-10-25T22:40:59.564Z,4.77
2022-10-25T22:43:27.910Z,5.10
2022-10-25T22:45:56.079Z,5.30
2022-10-25T22:48:24.193Z,5.00
2022-10-25T22:50:53.698Z,5.50
2022-10-25T22:53:23.939Z,4.93
2022-10-25T22:55:56.808Z,4.93
2022-10-25T22:58:25.829Z,5.27
2022-10-25T23:01:00.350Z,5.37
2022-10-25T23:03:28.519Z,5.40
2022-10-25T23:06:00.220Z,4.87
2022-10-25T23:08:30.652Z,5.33
2022-10-25T23:11:00.132Z,5.10
2022-10-25T23:13:28.359Z,5.40
2022-10-25T23:15:56.367Z,4.63
2022-10-25T23:18:25.624Z,5.13
2022-10-25T23:20:55.490Z,4.03
2022-10-25T23:23:24.169Z,5.10
2022-10-25T23:25:54.490Z,4.80
2022-10-25T23:28:22.814Z,4.87
2022-10-25T23:30:50.803Z,5.33
2022-10-25T23:33:18.965Z,5.87
2022-10-25T23:35:49.049Z,5.20
2022-10-25T23:38:19.813Z,5.33
2022-10-25T23:40:49.971Z,5.00
2022-10-25T23:43:21.052Z,5.03
2022-10-25T23:45:53.059Z,5.43
2022-10-25T23:48:23.602Z,5.00
2022-10-25T23:50:57.654Z,5.30
2022-10-25T23:53:27.065Z,5.03
2022-10-25T23:55:58.719Z,5.27
2022-10-25T23:58:31.562Z,4.50
